Chitose — JD2925 — position and weather

sailwx.info

Track history (hours):
 
Tides and Currents Weather Stations Pressure Air Temp Water Temp Dewpoint Dewpoint Depression Visibility Wind Speed Wind Dir Waves Ship Positions

Chitose

Last reported at 2015-Sep-01 03:33 UTC. Time now 2015-Sep-01 03:58 UTC.
Position N 35°27' E 139°39'.

Length 33 m; draft 3.8 m.

Type: Tug. MMSI: 431000953.

Date/timePositionNaut miles runAvg speedWind from/ knotsBaromVisibWave heightAir tempDewpointWater temp
2015-Sep-01 03:33N 35°27' E 139°39'0 0.0
2015-Sep-01 02:33N 35°27' E 139°39'0 0.0
2015-Sep-01 01:33N 35°27' E 139°39'0 0.0
2015-Sep-01 00:33N 35°27' E 139°39'0 0.0
2015-Aug-31 23:33N 35°27' E 139°39'3 3.0
2015-Aug-31 22:33N 35°28' E 139°42'1 0.9
2015-Aug-31 21:33N 35°27' E 139°42'0 0.0
2015-Aug-31 20:33N 35°27' E 139°42'0 0.0
2015-Aug-31 19:34N 35°27' E 139°42'1 1.2
2015-Aug-31 18:33N 35°26' E 139°41'1 1.2
2015-Aug-31 17:34N 35°27' E 139°40'0 0.0
2015-Aug-31 16:33N 35°27' E 139°40'0 0.0
2015-Aug-31 15:33N 35°27' E 139°40'0 0.0
2015-Aug-31 14:33N 35°27' E 139°40'0 0.0
2015-Aug-31 13:33N 35°27' E 139°40'0 0.0
2015-Aug-31 12:33N 35°27' E 139°40'0 0.0
2015-Aug-31 11:33N 35°27' E 139°40'0 0.0
2015-Aug-31 10:33N 35°27' E 139°40'0 0.0
2015-Aug-31 09:33N 35°27' E 139°40'2 1.7
2015-Aug-31 08:34N 35°28' E 139°42'1 0.6
2015-Aug-31 07:33N 35°28' E 139°42'0 0.3
2015-Aug-31 06:33N 35°27' E 139°42'2 1.8
2015-Aug-31 05:34N 35°26' E 139°41'1 1.5
2015-Aug-31 04:34N 35°27' E 139°39'0 0.0
2015-Aug-31 03:33N 35°27' E 139°39'0 0.0
2015-Aug-31 02:33N 35°27' E 139°39'0 0.0
2015-Aug-31 01:33N 35°27' E 139°39'0 0.0
2015-Aug-31 00:34N 35°27' E 139°39'1 1.1
2015-Aug-30 23:34N 35°28' E 139°40'2 2.4
2015-Aug-30 22:34N 35°26' E 139°42'2 2.3
2015-Aug-30 21:33N 35°27' E 139°40'1 0.1
2015-Aug-29 23:33N 35°28' E 139°41'3 3.4
2015-Aug-29 22:33N 35°26' E 139°44'2 1.9
2015-Aug-29 21:33N 35°27' E 139°42'1 1.3
2015-Aug-29 20:33N 35°26' E 139°41'1 1.2
2015-Aug-29 19:33N 35°27' E 139°42'0 0.0
2015-Aug-29 18:33N 35°27' E 139°42'0 0.0
2015-Aug-29 17:33N 35°27' E 139°42'1 0.7
2015-Aug-29 16:33N 35°27' E 139°41'1 0.7
2015-Aug-29 15:33N 35°27' E 139°42'0 0.0
2015-Aug-29 14:33N 35°27' E 139°42'1 1.0
2015-Aug-29 13:33N 35°27' E 139°41'0 0.4
2015-Aug-29 12:33N 35°28' E 139°41'0 0.0
2015-Aug-29 11:33N 35°28' E 139°41'2 1.9
2015-Aug-29 10:34N 35°26' E 139°42'1 0.5
2015-Aug-29 09:33N 35°26' E 139°42'0 0.0
2015-Aug-29 08:33N 35°26' E 139°42'1 1.4
2015-Aug-29 07:33N 35°27' E 139°41'1 0.8
2015-Aug-29 06:33N 35°27' E 139°42'4 4.2
2015-Aug-29 05:33N 35°24' E 139°38'0 0.1
2015-Aug-29 04:34N 35°24' E 139°38'1 1.4
2015-Aug-29 03:33N 35°23' E 139°40'1 1.4
2015-Aug-29 02:34N 35°24' E 139°38'2 1.9
2015-Aug-29 01:34N 35°24' E 139°40'4 3.9
2015-Aug-29 00:33N 35°28' E 139°40'0 0.2
2015-Aug-28 23:34N 35°27' E 139°40'3 2.9
2015-Aug-28 22:33N 35°26' E 139°44'3 3.5
2015-Aug-28 21:33N 35°27' E 139°39'0 0.0
2015-Aug-28 07:14N 35°27' E 139°40'0 0.0
2015-Aug-28 06:33N 35°27' E 139°40'0 0.0
2015-Aug-28 05:33N 35°27' E 139°40'0 0.0
2015-Aug-28 04:33N 35°27' E 139°40'0 0.0
2015-Aug-28 03:33N 35°27' E 139°40'0 0.0
2015-Aug-28 02:33N 35°27' E 139°40'3 2.9
2015-Aug-28 01:33N 35°29' E 139°42'4 3.8
2015-Aug-28 00:33N 35°31' E 139°46'1 0.7
2015-Aug-27 23:33N 35°30' E 139°46'2 2.4
2015-Aug-27 22:33N 35°29' E 139°43'3 3.1
2015-Aug-27 21:33N 35°27' E 139°41'2 1.6
2015-Aug-27 20:33N 35°27' E 139°40'2 0.2
2015-Aug-27 08:04N 35°27' E 139°42'1 1.8
2015-Aug-27 07:34N 35°28' E 139°42'2 1.7
2015-Aug-27 06:34N 35°27' E 139°40'0 0.0
2015-Aug-27 04:33N 35°27' E 139°40'3 3.3
2015-Aug-27 03:34N 35°24' E 139°38'0 0.0
2015-Aug-27 02:33N 35°24' E 139°38'3 3.4
2015-Aug-27 01:34N 35°22' E 139°42'1 0.8
2015-Aug-27 00:33N 35°23' E 139°41'0 0.0
2015-Aug-26 23:34N 35°23' E 139°41'5 5.4
2015-Aug-26 22:33N 35°28' E 139°41'2 1.8
2015-Aug-26 21:34N 35°27' E 139°43'3 2.6
2015-Aug-26 20:33N 35°27' E 139°40'0 0.0
2015-Aug-26 07:11N 35°27' E 139°40'0 0.0
2015-Aug-26 06:33N 35°27' E 139°40'0 0.0
2015-Aug-26 05:33N 35°27' E 139°40'2 2.1
2015-Aug-26 04:33N 35°28' E 139°42'1 1.1
2015-Aug-26 03:33N 35°28' E 139°40'0 0.0
2015-Aug-26 02:33N 35°28' E 139°40'1 0.6
2015-Aug-26 01:33N 35°27' E 139°41'1 0.7
2015-Aug-26 00:33N 35°28' E 139°40'0 0.0
2015-Aug-25 23:33N 35°28' E 139°40'0 0.0
2015-Aug-25 22:33N 35°28' E 139°40'1 1.3
2015-Aug-25 21:33N 35°27' E 139°42'2 1.6
2015-Aug-25 20:33N 35°27' E 139°40'2 0.1
2015-Aug-25 02:34N 35°27' E 139°42'5 4.8
2015-Aug-25 01:34N 35°29' E 139°47'2 1.7
2015-Aug-25 00:33N 35°27' E 139°47'2 1.9
2015-Aug-24 23:33N 35°27' E 139°44'2 1.9
2015-Aug-24 22:34N 35°27' E 139°42'1 0.9
2015-Aug-24 21:34N 35°26' E 139°42'2 2.3
2015-Aug-24 20:33N 35°27' E 139°40'2 0.2
2015-Aug-24 09:27N 35°27' E 139°42'1 1.0
2015-Aug-24 08:33N 35°28' E 139°41'1 1.1
2015-Aug-24 07:34N 35°27' E 139°41'1 1.2
2015-Aug-24 06:33N 35°27' E 139°40'0 0.1
2015-Aug-24 05:33N 35°27' E 139°40'0 0.0
2015-Aug-24 04:33N 35°27' E 139°40'0 0.0
2015-Aug-24 03:33N 35°27' E 139°40'0 0.0
2015-Aug-24 02:33N 35°27' E 139°40'0 0.0
2015-Aug-24 01:33N 35°27' E 139°40'0 0.0
2015-Aug-24 00:33N 35°27' E 139°40'0 0.0
2015-Aug-23 23:33N 35°27' E 139°40'0 0.0
2015-Aug-23 22:33N 35°27' E 139°40'  
Track history (hours):
 
Tides and Currents Weather Stations Pressure Air Temp Water Temp Dewpoint Dewpoint Depression Visibility Wind Speed Wind Dir Waves Ship Positions

Chitose

Last reported at 2015-Sep-01 03:33 UTC. Time now 2015-Sep-01 03:58 UTC.
Position N 35°27' E 139°39'.

Length 33 m; draft 3.8 m.

Type: Tug. MMSI: 431000953.

Date/timePositionNaut miles runAvg speedWind from/ knotsBaromVisibWave heightAir tempDewpointWater temp
2015-Sep-01 03:33N 35°27' E 139°39'0 0.0
2015-Sep-01 02:33N 35°27' E 139°39'0 0.0
2015-Sep-01 01:33N 35°27' E 139°39'0 0.0
2015-Sep-01 00:33N 35°27' E 139°39'0 0.0
2015-Aug-31 23:33N 35°27' E 139°39'3 3.0
2015-Aug-31 22:33N 35°28' E 139°42'1 0.9
2015-Aug-31 21:33N 35°27' E 139°42'0 0.0
2015-Aug-31 20:33N 35°27' E 139°42'0 0.0
2015-Aug-31 19:34N 35°27' E 139°42'1 1.2
2015-Aug-31 18:33N 35°26' E 139°41'1 1.2
2015-Aug-31 17:34N 35°27' E 139°40'0 0.0
2015-Aug-31 16:33N 35°27' E 139°40'0 0.0
2015-Aug-31 15:33N 35°27' E 139°40'0 0.0
2015-Aug-31 14:33N 35°27' E 139°40'0 0.0
2015-Aug-31 13:33N 35°27' E 139°40'0 0.0
2015-Aug-31 12:33N 35°27' E 139°40'0 0.0
2015-Aug-31 11:33N 35°27' E 139°40'0 0.0
2015-Aug-31 10:33N 35°27' E 139°40'0 0.0
2015-Aug-31 09:33N 35°27' E 139°40'2 1.7
2015-Aug-31 08:34N 35°28' E 139°42'1 0.6
2015-Aug-31 07:33N 35°28' E 139°42'0 0.3
2015-Aug-31 06:33N 35°27' E 139°42'2 1.8
2015-Aug-31 05:34N 35°26' E 139°41'1 1.5
2015-Aug-31 04:34N 35°27' E 139°39'0 0.0
2015-Aug-31 03:33N 35°27' E 139°39'0 0.0
2015-Aug-31 02:33N 35°27' E 139°39'0 0.0
2015-Aug-31 01:33N 35°27' E 139°39'0 0.0
2015-Aug-31 00:34N 35°27' E 139°39'1 1.1
2015-Aug-30 23:34N 35°28' E 139°40'2 2.4
2015-Aug-30 22:34N 35°26' E 139°42'2 2.3
2015-Aug-30 21:33N 35°27' E 139°40'1 0.1
2015-Aug-29 23:33N 35°28' E 139°41'3 3.4
2015-Aug-29 22:33N 35°26' E 139°44'2 1.9
2015-Aug-29 21:33N 35°27' E 139°42'1 1.3
2015-Aug-29 20:33N 35°26' E 139°41'1 1.2
2015-Aug-29 19:33N 35°27' E 139°42'0 0.0
2015-Aug-29 18:33N 35°27' E 139°42'0 0.0
2015-Aug-29 17:33N 35°27' E 139°42'1 0.7
2015-Aug-29 16:33N 35°27' E 139°41'1 0.7
2015-Aug-29 15:33N 35°27' E 139°42'0 0.0
2015-Aug-29 14:33N 35°27' E 139°42'1 1.0
2015-Aug-29 13:33N 35°27' E 139°41'0 0.4
2015-Aug-29 12:33N 35°28' E 139°41'0 0.0
2015-Aug-29 11:33N 35°28' E 139°41'2 1.9
2015-Aug-29 10:34N 35°26' E 139°42'1 0.5
2015-Aug-29 09:33N 35°26' E 139°42'0 0.0
2015-Aug-29 08:33N 35°26' E 139°42'1 1.4
2015-Aug-29 07:33N 35°27' E 139°41'1 0.8
2015-Aug-29 06:33N 35°27' E 139°42'4 4.2
2015-Aug-29 05:33N 35°24' E 139°38'0 0.1
2015-Aug-29 04:34N 35°24' E 139°38'1 1.4
2015-Aug-29 03:33N 35°23' E 139°40'1 1.4
2015-Aug-29 02:34N 35°24' E 139°38'2 1.9
2015-Aug-29 01:34N 35°24' E 139°40'4 3.9
2015-Aug-29 00:33N 35°28' E 139°40'0 0.2
2015-Aug-28 23:34N 35°27' E 139°40'3 2.9
2015-Aug-28 22:33N 35°26' E 139°44'3 3.5
2015-Aug-28 21:33N 35°27' E 139°39'0 0.0
2015-Aug-28 07:14N 35°27' E 139°40'0 0.0
2015-Aug-28 06:33N 35°27' E 139°40'0 0.0
2015-Aug-28 05:33N 35°27' E 139°40'0 0.0
2015-Aug-28 04:33N 35°27' E 139°40'0 0.0
2015-Aug-28 03:33N 35°27' E 139°40'0 0.0
2015-Aug-28 02:33N 35°27' E 139°40'3 2.9
2015-Aug-28 01:33N 35°29' E 139°42'4 3.8
2015-Aug-28 00:33N 35°31' E 139°46'1 0.7
2015-Aug-27 23:33N 35°30' E 139°46'2 2.4
2015-Aug-27 22:33N 35°29' E 139°43'3 3.1
2015-Aug-27 21:33N 35°27' E 139°41'2 1.6
2015-Aug-27 20:33N 35°27' E 139°40'2 0.2
2015-Aug-27 08:04N 35°27' E 139°42'1 1.8
2015-Aug-27 07:34N 35°28' E 139°42'2 1.7
2015-Aug-27 06:34N 35°27' E 139°40'0 0.0
2015-Aug-27 04:33N 35°27' E 139°40'3 3.3
2015-Aug-27 03:34N 35°24' E 139°38'0 0.0
2015-Aug-27 02:33N 35°24' E 139°38'3 3.4
2015-Aug-27 01:34N 35°22' E 139°42'1 0.8
2015-Aug-27 00:33N 35°23' E 139°41'0 0.0
2015-Aug-26 23:34N 35°23' E 139°41'5 5.4
2015-Aug-26 22:33N 35°28' E 139°41'2 1.8
2015-Aug-26 21:34N 35°27' E 139°43'3 2.6
2015-Aug-26 20:33N 35°27' E 139°40'0 0.0
2015-Aug-26 07:11N 35°27' E 139°40'0 0.0
2015-Aug-26 06:33N 35°27' E 139°40'0 0.0
2015-Aug-26 05:33N 35°27' E 139°40'2 2.1
2015-Aug-26 04:33N 35°28' E 139°42'1 1.1
2015-Aug-26 03:33N 35°28' E 139°40'0 0.0
2015-Aug-26 02:33N 35°28' E 139°40'1 0.6
2015-Aug-26 01:33N 35°27' E 139°41'1 0.7
2015-Aug-26 00:33N 35°28' E 139°40'0 0.0
2015-Aug-25 23:33N 35°28' E 139°40'0 0.0
2015-Aug-25 22:33N 35°28' E 139°40'1 1.3
2015-Aug-25 21:33N 35°27' E 139°42'2 1.6
2015-Aug-25 20:33N 35°27' E 139°40'2 0.1
2015-Aug-25 02:34N 35°27' E 139°42'5 4.8
2015-Aug-25 01:34N 35°29' E 139°47'2 1.7
2015-Aug-25 00:33N 35°27' E 139°47'2 1.9
2015-Aug-24 23:33N 35°27' E 139°44'2 1.9
2015-Aug-24 22:34N 35°27' E 139°42'1 0.9
2015-Aug-24 21:34N 35°26' E 139°42'2 2.3
2015-Aug-24 20:33N 35°27' E 139°40'2 0.2
2015-Aug-24 09:27N 35°27' E 139°42'1 1.0
2015-Aug-24 08:33N 35°28' E 139°41'1 1.1
2015-Aug-24 07:34N 35°27' E 139°41'1 1.2
2015-Aug-24 06:33N 35°27' E 139°40'0 0.1
2015-Aug-24 05:33N 35°27' E 139°40'0 0.0
2015-Aug-24 04:33N 35°27' E 139°40'0 0.0
2015-Aug-24 03:33N 35°27' E 139°40'0 0.0
2015-Aug-24 02:33N 35°27' E 139°40'0 0.0
2015-Aug-24 01:33N 35°27' E 139°40'0 0.0
2015-Aug-24 00:33N 35°27' E 139°40'0 0.0
2015-Aug-23 23:33N 35°27' E 139°40'0 0.0
2015-Aug-23 22:33N 35°27' E 139°40'  

Dump ship's entire track history